Time;durP1;ratioP1;P1;durP2;ratioP2;P2;SDS_P1;SDS_P2;PMS_P1;PMS_P2;Temp;Humidity;BMP_temperature;BMP_pressure;BME280_temperature;BME280_humidity;BME280_pressure;Samples;Min_cycle;Max_cycle;Signal;HPM_P1;HPM_P2
2023/03/05 00:00:00;;;;;;;6.40;3.65;;;6.10;99.90;;;;;;4947015;29;20055;-58
2023/03/05 00:02:27;;;;;;;20.40;4.60;;;6.00;99.90;;;;;;4946997;29;20114;-58
2023/03/05 00:04:54;;;;;;;12.70;4.95;;;6.00;99.90;;;;;;4947190;29;20590;-54
2023/03/05 00:07:20;;;;;;;11.60;5.05;;;6.00;99.90;;;;;;4948552;29;20542;-57
2023/03/05 00:09:47;;;;;;;8.80;3.90;;;6.00;99.90;;;;;;4947414;29;20069;-57
2023/03/05 00:12:15;;;;;;;12.05;4.38;;;6.00;99.90;;;;;;4948936;29;20057;-58
2023/03/05 00:14:42;;;;;;;9.82;5.10;;;6.00;99.90;;;;;;4948404;29;20051;-57
2023/03/05 00:17:09;;;;;;;15.18;5.45;;;6.00;99.90;;;;;;4930648;29;20047;-55
2023/03/05 00:19:36;;;;;;;15.15;5.80;;;6.00;99.90;;;;;;4946900;29;20432;-58
2023/03/05 00:22:03;;;;;;;13.55;4.82;;;6.10;99.90;;;;;;4913559;29;20056;-58
2023/03/05 00:24:29;;;;;;;12.85;4.68;;;6.10;99.90;;;;;;4946454;29;20059;-58
2023/03/05 00:26:56;;;;;;;16.85;4.47;;;6.10;99.90;;;;;;4946905;29;20053;-58
2023/03/05 00:29:23;;;;;;;10.20;4.45;;;6.00;99.90;;;;;;4947178;29;20051;-58
2023/03/05 00:31:50;;;;;;;10.77;4.13;;;6.00;99.90;;;;;;4947427;29;20138;-57
2023/03/05 00:34:17;;;;;;;12.88;4.93;;;6.00;99.90;;;;;;4947671;29;20051;-58
2023/03/05 00:36:46;;;;;;;7.75;4.00;;;6.00;99.90;;;;;;4948787;29;20043;-58
2023/03/05 00:39:13;;;;;;;7.72;3.90;;;5.90;99.90;;;;;;4948490;29;20463;-57
2023/03/05 00:41:40;;;;;;;8.15;4.28;;;5.90;99.90;;;;;;4949121;29;20138;-59
2023/03/05 00:44:07;;;;;;;9.13;5.00;;;5.90;99.90;;;;;;4948265;29;20641;-55
2023/03/05 00:46:34;;;;;;;13.63;4.88;;;5.90;99.90;;;;;;4606261;28;10000470;-55
2023/03/05 00:49:01;;;;;;;11.90;5.20;;;5.90;99.90;;;;;;4932952;29;20563;-57
2023/03/05 00:51:28;;;;;;;9.90;4.40;;;5.90;99.90;;;;;;4951708;29;20126;-58
2023/03/05 00:53:54;;;;;;;12.57;5.10;;;5.90;99.90;;;;;;4951942;29;20051;-57
2023/03/05 00:56:21;;;;;;;8.43;4.35;;;5.90;99.90;;;;;;4951143;29;20130;-57
2023/03/05 00:58:48;;;;;;;14.27;5.55;;;5.90;99.90;;;;;;4951095;29;20698;-57
2023/03/05 01:01:15;;;;;;;10.18;5.93;;;5.90;99.90;;;;;;4933156;29;20055;-56
2023/03/05 01:03:42;;;;;;;9.73;4.35;;;5.90;99.90;;;;;;4950952;29;20138;-57
2023/03/05 01:06:10;;;;;;;11.15;4.38;;;5.90;99.90;;;;;;4950639;29;20053;-58
2023/03/05 01:08:37;;;;;;;13.00;5.10;;;5.90;99.90;;;;;;4949513;28;20054;-54
2023/03/05 01:11:04;;;;;;;9.88;4.38;;;5.80;99.90;;;;;;4950690;29;20047;-57
2023/03/05 01:13:31;;;;;;;10.60;4.75;;;5.90;99.90;;;;;;4950924;29;20138;-56
2023/03/05 01:15:58;;;;;;;11.48;4.65;;;5.90;99.90;;;;;;4933240;29;20082;-56
2023/03/05 01:18:25;;;;;;;11.45;4.65;;;5.90;99.90;;;;;;4951321;29;20047;-57
2023/03/05 01:20:52;;;;;;;10.38;4.93;;;5.80;99.90;;;;;;4933333;29;20047;-57
2023/03/05 01:23:18;;;;;;;10.65;4.45;;;5.80;99.90;;;;;;4950064;29;20099;-56
2023/03/05 01:25:45;;;;;;;12.40;5.18;;;5.70;99.90;;;;;;4950778;29;20047;-57
2023/03/05 01:28:12;;;;;;;10.82;4.32;;;5.70;99.90;;;;;;4933613;29;20133;-57
2023/03/05 01:30:39;;;;;;;11.48;4.97;;;5.70;99.90;;;;;;4933424;29;20059;-53
2023/03/05 01:33:05;;;;;;;10.75;5.20;;;5.80;99.90;;;;;;4950445;29;20142;-56
2023/03/05 01:35:32;;;;;;;8.20;4.47;;;5.80;99.90;;;;;;4950916;29;20123;-56
2023/03/05 01:37:59;;;;;;;7.50;4.95;;;5.80;99.90;;;;;;4950693;29;20073;-57
2023/03/05 01:40:27;;;;;;;9.80;5.15;;;5.80;99.90;;;;;;4951123;29;20089;-57
2023/03/05 01:42:59;;;;;;;10.10;5.20;;;5.80;99.90;;;;;;4933093;29;20615;-57
2023/03/05 01:45:29;;;;;;;9.23;5.40;;;5.80;99.90;;;;;;4950401;29;20055;-56
2023/03/05 01:47:56;;;;;;;12.90;4.97;;;5.70;99.90;;;;;;4933356;29;20451;-56
2023/03/05 01:50:23;;;;;;;10.65;5.68;;;5.70;99.90;;;;;;4950723;29;20051;-57
2023/03/05 01:52:58;;;;;;;10.32;5.03;;;5.80;99.90;;;;;;4934423;29;20045;-57
2023/03/05 01:55:25;;;;;;;8.02;5.47;;;5.70;99.90;;;;;;4950905;29;20054;-55
2023/03/05 01:58:02;;;;;;;9.55;5.00;;;5.60;99.90;;;;;;4933173;29;20131;-57
2023/03/05 02:00:31;;;;;;;11.75;5.32;;;5.60;99.90;;;;;;4950701;29;20471;-58
2023/03/05 02:03:01;;;;;;;12.38;5.07;;;5.70;99.90;;;;;;4916958;29;20048;-57
2023/03/05 02:05:33;;;;;;;10.75;5.25;;;5.70;99.90;;;;;;4933277;29;20099;-57
2023/03/05 02:08:01;;;;;;;9.95;4.60;;;5.60;99.90;;;;;;4932868;29;20626;-57
2023/03/05 02:10:31;;;;;;;8.27;5.13;;;5.70;99.90;;;;;;4950327;29;20081;-56
2023/03/05 02:13:00;;;;;;;9.73;5.45;;;5.70;99.90;;;;;;4917026;29;20047;-56
2023/03/05 02:15:28;;;;;;;12.20;5.22;;;5.70;99.90;;;;;;4932932;29;20065;-57
2023/03/05 02:17:54;;;;;;;9.65;4.47;;;5.70;99.90;;;;;;4932392;29;20051;-57
2023/03/05 02:20:23;;;;;;;11.90;5.32;;;5.70;99.90;;;;;;4949897;28;20074;-57
2023/03/05 02:22:50;;;;;;;13.40;7.10;;;5.70;99.90;;;;;;4931920;29;20147;-57
2023/03/05 02:25:17;;;;;;;11.55;5.93;;;5.70;99.90;;;;;;4949530;29;20074;-59
2023/03/05 02:27:51;;;;;;;13.85;5.00;;;5.70;99.90;;;;;;4932696;29;20047;-57
2023/03/05 02:30:18;;;;;;;12.40;5.35;;;5.80;99.90;;;;;;4932712;29;20521;-58
2023/03/05 02:32:45;;;;;;;10.82;5.57;;;6.00;99.90;;;;;;4949310;29;20589;-56
2023/03/05 02:35:12;;;;;;;12.20;5.18;;;5.70;99.90;;;;;;4932829;29;20110;-56
2023/03/05 02:37:39;;;;;;;9.02;5.45;;;5.70;99.90;;;;;;4949933;29;20058;-57
2023/03/05 02:40:06;;;;;;;7.40;4.40;;;5.70;99.90;;;;;;4949276;29;20479;-57
2023/03/05 02:42:34;;;;;;;14.52;5.75;;;5.70;99.90;;;;;;4949804;29;20047;-58
2023/03/05 02:45:01;;;;;;;10.27;5.43;;;5.70;99.90;;;;;;4948906;29;20047;-57
2023/03/05 02:47:28;;;;;;;10.90;5.93;;;5.70;99.90;;;;;;4606813;28;10001225;-55
2023/03/05 02:49:54;;;;;;;11.13;5.63;;;5.70;99.90;;;;;;4945755;29;20109;-56
2023/03/05 02:52:24;;;;;;;11.57;6.13;;;5.70;99.90;;;;;;4930620;29;20062;-57
2023/03/05 02:54:51;;;;;;;10.85;5.60;;;5.60;99.90;;;;;;4951350;28;20057;-55
2023/03/05 02:57:18;;;;;;;10.05;5.40;;;5.60;99.90;;;;;;4949520;29;20043;-57
2023/03/05 02:59:45;;;;;;;11.60;5.60;;;5.60;99.90;;;;;;4949363;29;20135;-57
2023/03/05 03:02:12;;;;;;;10.90;5.95;;;5.60;99.90;;;;;;4950171;29;20141;-57
2023/03/05 03:04:39;;;;;;;10.68;6.70;;;5.60;99.90;;;;;;4948422;29;20051;-56
2023/03/05 03:07:05;;;;;;;8.85;5.90;;;5.60;99.90;;;;;;4949494;29;20051;-57
2023/03/05 03:09:34;;;;;;;10.60;7.13;;;5.60;99.90;;;;;;4949400;28;20128;-56
2023/03/05 03:12:01;;;;;;;15.10;6.68;;;5.60;99.90;;;;;;4932412;29;20110;-56
2023/03/05 03:14:39;;;;;;;8.77;5.57;;;5.60;99.90;;;;;;4948613;29;20039;-56
2023/03/05 03:17:07;;;;;;;9.18;5.82;;;5.50;99.90;;;;;;4946271;28;20058;-57
2023/03/05 03:19:35;;;;;;;12.52;6.35;;;5.50;99.90;;;;;;4932563;29;20039;-57
2023/03/05 03:22:02;;;;;;;11.52;5.22;;;5.50;99.90;;;;;;4949001;29;20474;-58
2023/03/05 03:24:29;;;;;;;8.05;6.43;;;5.50;99.90;;;;;;4947983;29;20487;-57
2023/03/05 03:26:56;;;;;;;13.60;6.50;;;5.50;99.90;;;;;;4945520;29;20491;-57
2023/03/05 03:29:23;;;;;;;16.08;6.53;;;5.40;99.90;;;;;;4949024;29;20047;-57
2023/03/05 03:31:50;;;;;;;13.25;5.03;;;5.40;99.90;;;;;;4949228;28;20051;-54
2023/03/05 03:34:17;;;;;;;9.73;5.80;;;5.40;99.90;;;;;;4936271;29;20054;-56
2023/03/05 03:36:44;;;;;;;12.18;6.05;;;5.30;99.90;;;;;;4953660;29;20121;-56
2023/03/05 03:39:11;;;;;;;19.20;8.88;;;5.30;99.90;;;;;;4953912;28;20380;-56
2023/03/05 03:41:40;;;;;;;10.77;5.75;;;5.20;99.90;;;;;;4955598;28;20134;-56
2023/03/05 03:44:09;;;;;;;12.07;6.40;;;5.20;99.90;;;;;;4952530;29;20043;-55
2023/03/05 03:46:37;;;;;;;9.75;6.15;;;5.10;99.90;;;;;;4952235;29;20058;-57
2023/03/05 03:49:04;;;;;;;14.50;7.13;;;5.10;99.90;;;;;;4936009;29;20495;-57
2023/03/05 03:51:30;;;;;;;9.57;5.38;;;5.10;99.90;;;;;;4952326;29;20089;-57
2023/03/05 03:53:58;;;;;;;9.15;5.05;;;5.10;99.90;;;;;;4952687;29;20055;-57
2023/03/05 03:56:25;;;;;;;9.90;6.38;;;5.10;99.90;;;;;;4942013;29;20139;-57
2023/03/05 03:58:52;;;;;;;12.65;5.90;;;5.10;99.90;;;;;;4952897;29;20129;-59
2023/03/05 04:01:19;;;;;;;11.02;5.72;;;5.00;99.90;;;;;;4952216;29;20537;-56
2023/03/05 04:03:46;;;;;;;16.92;5.75;;;4.90;99.90;;;;;;4949574;29;20513;-56
2023/03/05 04:06:13;;;;;;;18.77;5.50;;;5.00;99.90;;;;;;4952033;29;20059;-55
2023/03/05 04:08:40;;;;;;;8.30;5.57;;;4.90;99.90;;;;;;4952883;29;20048;-61
2023/03/05 04:11:06;;;;;;;13.82;5.85;;;4.90;99.90;;;;;;4952376;29;20043;-58
2023/03/05 04:13:33;;;;;;;10.40;5.57;;;4.90;99.90;;;;;;4952419;29;20639;-56
2023/03/05 04:16:00;;;;;;;12.27;6.15;;;4.90;99.90;;;;;;4951786;29;20054;-57
2023/03/05 04:18:27;;;;;;;16.55;6.00;;;4.90;99.90;;;;;;4952267;29;20490;-55
2023/03/05 04:20:53;;;;;;;12.10;5.30;;;4.80;99.90;;;;;;4952602;29;20051;-56
2023/03/05 04:23:20;;;;;;;11.05;5.70;;;4.80;99.90;;;;;;4951951;29;20043;-59
2023/03/05 04:25:47;;;;;;;17.10;6.05;;;4.70;99.90;;;;;;4935066;29;20054;-52
2023/03/05 04:28:13;;;;;;;15.32;7.10;;;4.70;99.90;;;;;;4951926;29;20043;-54
2023/03/05 04:30:40;;;;;;;11.73;6.03;;;4.70;99.90;;;;;;4951814;29;20451;-55
2023/03/05 04:33:07;;;;;;;13.52;6.05;;;4.70;99.90;;;;;;4952169;29;20134;-57
2023/03/05 04:35:33;;;;;;;11.65;6.40;;;4.80;99.90;;;;;;4951893;29;20063;-56
2023/03/05 04:38:00;;;;;;;14.55;6.68;;;4.80;99.90;;;;;;4935474;29;20479;-57
2023/03/05 04:40:27;;;;;;;15.80;6.70;;;4.80;99.90;;;;;;4953068;29;20058;-57
2023/03/05 04:42:54;;;;;;;13.20;6.63;;;4.70;99.90;;;;;;4952033;28;20308;-57
2023/03/05 04:45:20;;;;;;;12.73;5.93;;;4.80;99.90;;;;;;4951506;29;20051;-57
2023/03/05 04:47:47;;;;;;;11.35;6.60;;;4.70;99.90;;;;;;4942864;29;20134;-58
2023/03/05 04:50:14;;;;;;;16.15;7.38;;;4.60;99.90;;;;;;4951628;29;20047;-57
2023/03/05 04:52:41;;;;;;;15.30;5.85;;;4.70;99.90;;;;;;4951445;29;20419;-57
2023/03/05 04:55:09;;;;;;;12.80;6.78;;;4.70;99.90;;;;;;4951670;29;20422;-57
2023/03/05 04:57:36;;;;;;;13.00;6.45;;;4.60;99.90;;;;;;4951374;29;20047;-57
2023/03/05 05:00:05;;;;;;;14.82;7.07;;;4.60;99.90;;;;;;4948426;29;20059;-56
2023/03/05 05:02:32;;;;;;;21.42;8.18;;;4.60;99.90;;;;;;4962450;28;20086;-58
2023/03/05 05:04:59;;;;;;;13.35;6.93;;;4.60;99.90;;;;;;4951002;29;20094;-59
2023/03/05 05:07:26;;;;;;;15.57;6.55;;;4.50;99.90;;;;;;4951629;29;20477;-56
2023/03/05 05:09:53;;;;;;;22.13;7.68;;;4.50;99.90;;;;;;4950633;29;20055;-54
2023/03/05 05:12:19;;;;;;;10.60;6.22;;;4.50;99.90;;;;;;4951948;29;20426;-56
2023/03/05 05:14:46;;;;;;;11.90;6.18;;;4.50;99.90;;;;;;4950963;29;20044;-57
2023/03/05 05:17:13;;;;;;;18.08;8.13;;;4.60;99.90;;;;;;4957874;28;20505;-57
2023/03/05 05:19:39;;;;;;;13.68;7.10;;;4.60;99.90;;;;;;4955641;28;20043;-56
2023/03/05 05:22:06;;;;;;;18.13;7.95;;;4.50;99.90;;;;;;4951070;29;20141;-57
2023/03/05 05:24:33;;;;;;;13.40;6.90;;;4.50;99.90;;;;;;4950948;29;20043;-57
2023/03/05 05:27:00;;;;;;;13.25;7.05;;;4.70;99.90;;;;;;4952373;29;20426;-59
2023/03/05 05:29:26;;;;;;;14.27;7.18;;;4.50;99.90;;;;;;4951505;29;20183;-57
2023/03/05 05:31:53;;;;;;;12.98;7.03;;;4.50;99.90;;;;;;4952059;29;20070;-60
2023/03/05 05:34:20;;;;;;;17.85;8.40;;;4.60;99.90;;;;;;4961779;28;20498;-58
2023/03/05 05:36:47;;;;;;;10.80;7.30;;;4.60;99.90;;;;;;4941314;29;20055;-57
2023/03/05 05:39:14;;;;;;;9.93;6.57;;;4.60;99.90;;;;;;4937395;29;20140;-57
2023/03/05 05:41:40;;;;;;;13.45;7.15;;;4.60;99.90;;;;;;4951090;29;20427;-56
2023/03/05 05:44:07;;;;;;;13.25;7.85;;;4.60;99.90;;;;;;4950759;29;20043;-58
2023/03/05 05:46:34;;;;;;;14.30;6.70;;;4.50;99.90;;;;;;4946578;29;20047;-57
2023/03/05 05:49:01;;;;;;;12.85;8.48;;;4.50;99.90;;;;;;4951286;29;20110;-57
2023/03/05 05:51:27;;;;;;;12.60;8.57;;;4.50;99.90;;;;;;4950276;29;20050;-57
2023/03/05 05:53:54;;;;;;;15.77;8.60;;;4.40;99.90;;;;;;4950598;29;20511;-57
2023/03/05 05:56:21;;;;;;;14.70;8.30;;;4.50;99.90;;;;;;4949629;28;20105;-57
2023/03/05 05:58:48;;;;;;;12.88;7.32;;;4.50;99.90;;;;;;4951081;29;20058;-58
2023/03/05 06:01:17;;;;;;;12.73;6.97;;;4.50;99.90;;;;;;4950412;29;20051;-58
2023/03/05 06:03:44;;;;;;;14.25;8.20;;;4.50;99.90;;;;;;4959243;28;20069;-57
2023/03/05 06:06:11;;;;;;;15.23;7.38;;;4.50;99.90;;;;;;4954212;28;20055;-58
2023/03/05 06:08:38;;;;;;;19.42;9.27;;;4.50;99.90;;;;;;4933148;29;20047;-58
2023/03/05 06:11:05;;;;;;;19.48;8.77;;;4.50;99.90;;;;;;4950355;29;20082;-57
2023/03/05 06:13:32;;;;;;;12.88;8.02;;;4.50;99.90;;;;;;4950033;29;20066;-57
2023/03/05 06:16:01;;;;;;;13.25;7.55;;;4.50;99.90;;;;;;4949582;29;20089;-58
2023/03/05 06:18:27;;;;;;;15.45;7.40;;;4.50;99.90;;;;;;4934508;28;20051;-57
2023/03/05 06:20:59;;;;;;;15.65;7.63;;;4.60;99.90;;;;;;4960689;28;20051;-57
2023/03/05 06:23:26;;;;;;;15.15;8.27;;;4.50;99.90;;;;;;4949873;29;20047;-58
2023/03/05 06:25:53;;;;;;;12.90;7.75;;;4.40;99.90;;;;;;4932554;29;20070;-56
2023/03/05 06:28:20;;;;;;;14.18;8.20;;;4.40;99.90;;;;;;4950222;29;20126;-56
2023/03/05 06:30:46;;;;;;;15.98;8.35;;;4.40;99.90;;;;;;4949513;29;20061;-58
2023/03/05 06:33:13;;;;;;;11.15;7.53;;;4.50;99.90;;;;;;4950176;29;20193;-58
2023/03/05 06:35:40;;;;;;;18.83;9.85;;;4.40;99.90;;;;;;4962081;28;20054;-57
2023/03/05 06:38:07;;;;;;;11.43;7.43;;;4.40;99.90;;;;;;4949451;29;20070;-57
2023/03/05 06:40:34;;;;;;;15.23;8.70;;;4.50;99.90;;;;;;4932819;29;20083;-57
2023/03/05 06:43:01;;;;;;;17.70;8.75;;;4.40;99.90;;;;;;4950679;28;20124;-55
2023/03/05 06:45:27;;;;;;;13.98;8.15;;;4.40;99.90;;;;;;4968919;28;20051;-57
2023/03/05 06:47:54;;;;;;;14.52;8.43;;;4.40;99.90;;;;;;4933903;29;20063;-56
2023/03/05 06:50:21;;;;;;;14.30;8.57;;;4.40;99.90;;;;;;4949774;29;20345;-57
2023/03/05 06:52:48;;;;;;;13.13;8.00;;;4.40;99.90;;;;;;4948660;29;20134;-57
2023/03/05 06:55:17;;;;;;;14.60;8.18;;;4.40;99.90;;;;;;4949569;29;20086;-57
2023/03/05 06:57:44;;;;;;;13.02;8.25;;;4.40;99.90;;;;;;4949598;29;20150;-57
2023/03/05 07:00:11;;;;;;;15.02;8.45;;;4.40;99.90;;;;;;4960568;28;20403;-56
2023/03/05 07:02:38;;;;;;;10.35;7.30;;;4.30;99.90;;;;;;4957636;28;20078;-57
2023/03/05 07:05:05;;;;;;;13.10;8.20;;;4.20;99.90;;;;;;4949851;29;20562;-57
2023/03/05 07:07:33;;;;;;;16.30;8.10;;;4.20;99.90;;;;;;4947605;29;20630;-57
2023/03/05 07:09:59;;;;;;;14.02;7.95;;;4.30;99.90;;;;;;4949302;29;20051;-57
2023/03/05 07:12:26;;;;;;;14.85;7.93;;;4.30;99.90;;;;;;4948609;29;20058;-57
2023/03/05 07:14:53;;;;;;;18.27;8.45;;;4.30;99.90;;;;;;4949014;28;20043;-55
2023/03/05 07:17:20;;;;;;;20.17;9.50;;;4.30;99.90;;;;;;4948405;29;20055;-57
2023/03/05 07:19:46;;;;;;;17.35;7.70;;;4.30;99.90;;;;;;4932014;29;20039;-57
2023/03/05 07:22:13;;;;;;;15.88;7.65;;;4.30;99.90;;;;;;4949323;29;20051;-57
2023/03/05 07:24:40;;;;;;;13.02;8.13;;;4.30;99.90;;;;;;4948972;29;20071;-55
2023/03/05 07:27:06;;;;;;;14.00;7.82;;;4.30;99.90;;;;;;4949086;29;20063;-56
2023/03/05 07:29:33;;;;;;;13.48;8.07;;;4.50;99.90;;;;;;4948436;29;20043;-59
2023/03/05 07:32:00;;;;;;;11.57;8.20;;;4.50;99.90;;;;;;4931842;29;20087;-57
2023/03/05 07:34:27;;;;;;;12.30;6.97;;;4.30;99.90;;;;;;4948472;29;20118;-57
2023/03/05 07:36:53;;;;;;;16.90;8.82;;;4.10;99.90;;;;;;4949746;29;20058;-57
2023/03/05 07:39:20;;;;;;;15.82;7.47;;;4.20;99.90;;;;;;4949153;29;20051;-56
2023/03/05 07:41:48;;;;;;;10.40;7.30;;;4.20;99.90;;;;;;4949261;29;20051;-55
2023/03/05 07:44:16;;;;;;;10.52;7.75;;;4.30;99.90;;;;;;4948334;29;20051;-56
2023/03/05 07:46:43;;;;;;;17.58;9.50;;;4.30;99.90;;;;;;4948411;28;20479;-57
2023/03/05 07:49:09;;;;;;;13.45;8.05;;;4.20;99.90;;;;;;4948440;29;20047;-57
2023/03/05 07:51:36;;;;;;;15.93;7.45;;;4.30;99.90;;;;;;4949024;29;20051;-60
2023/03/05 07:54:03;;;;;;;16.40;6.75;;;4.30;99.90;;;;;;4948410;29;20047;-58
2023/03/05 07:56:33;;;;;;;14.73;7.53;;;4.40;99.90;;;;;;4949091;29;20062;-57
2023/03/05 07:59:02;;;;;;;13.60;8.25;;;4.30;99.90;;;;;;4948668;29;20053;-56
2023/03/05 08:01:29;;;;;;;11.88;7.40;;;4.20;99.90;;;;;;4948170;29;20052;-55
2023/03/05 08:03:56;;;;;;;15.52;7.22;;;4.20;99.90;;;;;;4948012;29;20055;-57
2023/03/05 08:06:23;;;;;;;19.00;8.77;;;4.30;99.90;;;;;;4948940;29;20138;-56
2023/03/05 08:08:49;;;;;;;14.20;7.93;;;4.30;99.90;;;;;;4931554;29;20051;-54
2023/03/05 08:11:16;;;;;;;17.40;7.47;;;4.30;99.90;;;;;;4948441;29;20498;-56
2023/03/05 08:13:43;;;;;;;17.00;7.22;;;4.30;99.90;;;;;;4948433;29;20054;-56
2023/03/05 08:16:12;;;;;;;11.15;7.75;;;4.40;99.90;;;;;;4947883;29;20130;-54
2023/03/05 08:18:39;;;;;;;11.98;8.02;;;4.30;99.90;;;;;;4932829;29;20146;-57
2023/03/05 08:21:06;;;;;;;16.45;7.60;;;4.40;99.90;;;;;;4951924;29;20502;-58
2023/03/05 08:23:33;;;;;;;13.38;7.95;;;4.30;99.90;;;;;;4932996;29;20051;-57
2023/03/05 08:26:00;;;;;;;13.10;7.53;;;4.30;99.90;;;;;;4947441;29;20094;-56
2023/03/05 08:28:27;;;;;;;13.57;8.23;;;4.40;99.90;;;;;;4607465;28;10000196;-55
2023/03/05 08:30:53;;;;;;;12.05;8.02;;;4.40;99.90;;;;;;4948310;28;20039;-57
2023/03/05 08:33:20;;;;;;;13.35;7.88;;;4.40;99.90;;;;;;4949115;29;20059;-58
2023/03/05 08:35:47;;;;;;;14.32;8.05;;;4.40;99.90;;;;;;4948559;29;20322;-59
2023/03/05 08:38:14;;;;;;;15.52;7.82;;;4.40;99.90;;;;;;4948668;29;20051;-57
2023/03/05 08:40:42;;;;;;;13.18;8.50;;;4.30;99.90;;;;;;4948779;29;20044;-57
2023/03/05 08:43:08;;;;;;;11.32;8.13;;;4.40;99.90;;;;;;4948886;29;20051;-58
2023/03/05 08:45:37;;;;;;;14.35;8.30;;;4.40;99.90;;;;;;4948099;29;20908;-58
2023/03/05 08:48:04;;;;;;;20.08;8.80;;;4.30;99.90;;;;;;4919490;29;20051;-59
2023/03/05 08:50:31;;;;;;;14.48;8.48;;;4.40;99.90;;;;;;4937071;29;20047;-57
2023/03/05 08:52:58;;;;;;;16.70;7.78;;;4.50;99.90;;;;;;4949214;29;20103;-58
2023/03/05 08:55:25;;;;;;;9.65;7.82;;;4.50;99.90;;;;;;4931181;29;20055;-53
2023/03/05 08:57:52;;;;;;;18.23;8.30;;;4.60;99.90;;;;;;4948954;29;20058;-60
2023/03/05 09:00:19;;;;;;;13.93;7.85;;;4.50;99.90;;;;;;4946315;29;20066;-53
2023/03/05 09:02:46;;;;;;;12.52;7.90;;;4.50;99.90;;;;;;4947345;29;20069;-56
2023/03/05 09:05:13;;;;;;;13.50;8.23;;;4.50;99.90;;;;;;4939338;28;20119;-57
2023/03/05 09:07:39;;;;;;;19.45;9.57;;;4.50;99.90;;;;;;4947815;29;20478;-55
2023/03/05 09:10:09;;;;;;;17.05;8.55;;;4.60;99.90;;;;;;4932348;29;20488;-58
2023/03/05 09:12:36;;;;;;;18.33;8.63;;;4.50;99.90;;;;;;4947719;29;20154;-57
2023/03/05 09:15:07;;;;;;;15.82;8.50;;;4.50;99.90;;;;;;4948605;28;20423;-56
2023/03/05 09:17:35;;;;;;;14.27;8.65;;;4.50;99.90;;;;;;4952584;28;20051;-55
2023/03/05 09:20:02;;;;;;;16.83;9.25;;;4.50;99.90;;;;;;4947825;29;20047;-55
2023/03/05 09:22:29;;;;;;;14.13;9.63;;;4.50;99.90;;;;;;4950657;28;20070;-58
2023/03/05 09:24:55;;;;;;;13.15;10.02;;;4.60;99.90;;;;;;4929670;29;20051;-59
2023/03/05 09:27:22;;;;;;;19.08;10.13;;;4.70;99.90;;;;;;4946787;29;20059;-55
2023/03/05 09:29:49;;;;;;;15.63;10.25;;;4.70;99.90;;;;;;4946820;28;20415;-57
2023/03/05 09:32:16;;;;;;;18.05;10.27;;;4.70;99.90;;;;;;4946838;29;20051;-57
2023/03/05 09:34:43;;;;;;;18.13;10.35;;;4.70;99.90;;;;;;4947042;29;20050;-56
2023/03/05 09:37:09;;;;;;;16.35;10.88;;;4.70;99.90;;;;;;4947054;29;20502;-58
2023/03/05 09:39:36;;;;;;;19.45;10.52;;;4.70;99.90;;;;;;4947168;29;20556;-57
2023/03/05 09:42:12;;;;;;;21.98;10.15;;;4.80;99.90;;;;;;4947139;29;20066;-58
2023/03/05 09:44:45;;;;;;;16.73;11.18;;;4.60;99.90;;;;;;4926469;29;20130;-52
2023/03/05 09:47:47;;;;;;;23.60;11.85;;;4.70;99.90;;;;;;4938473;29;20668;-57
2023/03/05 09:50:35;;;;;;;19.92;10.85;;;4.70;99.90;;;;;;4926206;28;20071;-53
2023/03/05 09:53:05;;;;;;;19.05;11.23;;;4.70;99.90;;;;;;4942718;29;20066;-58
2023/03/05 09:55:39;;;;;;;17.65;10.75;;;4.70;99.90;;;;;;4942569;29;20110;-58
2023/03/05 09:58:11;;;;;;;23.02;13.52;;;4.60;99.90;;;;;;4952571;28;20047;-57
2023/03/05 10:00:38;;;;;;;19.83;12.50;;;4.80;99.90;;;;;;4927594;29;20502;-56
2023/03/05 10:03:11;;;;;;;17.67;11.80;;;4.90;99.90;;;;;;4913864;29;20047;-58
2023/03/05 10:05:49;;;;;;;22.88;12.35;;;5.10;99.90;;;;;;4947111;29;20058;-57
2023/03/05 10:08:18;;;;;;;19.48;12.43;;;5.20;99.90;;;;;;4936845;29;20138;-56
2023/03/05 10:10:50;;;;;;;18.45;11.82;;;5.20;99.90;;;;;;4929952;29;20066;-55
2023/03/05 10:13:24;;;;;;;22.45;12.35;;;5.20;99.90;;;;;;4929683;29;20525;-58
2023/03/05 10:16:18;;;;;;;17.50;11.30;;;5.30;99.90;;;;;;4930211;29;20086;-60
2023/03/05 10:18:46;;;;;;;20.10;11.35;;;5.10;99.90;;;;;;4947668;29;20150;-56
2023/03/05 10:21:13;;;;;;;17.77;11.85;;;5.20;99.90;;;;;;4930702;29;20059;-57
2023/03/05 10:24:01;;;;;;;24.60;13.20;;;5.10;99.90;;;;;;4933214;29;20081;-58
2023/03/05 10:26:43;;;;;;;25.15;13.35;;;5.20;99.90;;;;;;4951707;28;20178;-58
2023/03/05 10:29:31;;;;;;;21.10;12.07;;;5.20;99.90;;;;;;4924624;29;20665;-58
2023/03/05 10:32:14;;;;;;;25.50;13.98;;;5.20;99.90;;;;;;4946284;29;20047;-58
2023/03/05 10:35:29;;;;;;;25.65;13.50;;;5.20;99.90;;;;;;4928906;29;20047;-59
2023/03/05 10:38:31;;;;;;;26.63;13.88;;;5.40;99.90;;;;;;4917229;29;20063;-58
2023/03/05 10:41:01;;;;;;;23.58;14.57;;;5.40;99.90;;;;;;4934023;28;20051;-58
2023/03/05 10:43:40;;;;;;;27.35;15.65;;;5.20;99.90;;;;;;4928739;29;20051;-57
2023/03/05 10:46:14;;;;;;;26.50;15.02;;;5.30;99.90;;;;;;4945161;29;20180;-57
2023/03/05 10:48:47;;;;;;;27.52;14.32;;;5.40;99.90;;;;;;4914028;29;20054;-57
2023/03/05 10:51:15;;;;;;;23.52;14.68;;;5.30;99.90;;;;;;4940899;29;20504;-58
2023/03/05 10:53:42;;;;;;;22.48;14.38;;;5.50;99.90;;;;;;4946067;29;20054;-57
2023/03/05 10:56:09;;;;;;;30.85;14.35;;;5.50;99.90;;;;;;4945270;29;20054;-57
2023/03/05 10:58:35;;;;;;;30.83;14.43;;;5.60;99.90;;;;;;4913193;29;20074;-57
2023/03/05 11:01:11;;;;;;;23.42;13.43;;;5.50;99.90;;;;;;4945567;29;20065;-57
2023/03/05 11:03:49;;;;;;;24.50;14.30;;;5.40;99.90;;;;;;4928033;29;20051;-58
2023/03/05 11:06:37;;;;;;;22.65;13.13;;;5.40;99.90;;;;;;4946128;29;20141;-58
2023/03/05 11:09:31;;;;;;;20.48;12.30;;;5.30;99.90;;;;;;4897268;29;20064;-57
2023/03/05 11:12:18;;;;;;;23.80;15.00;;;5.30;99.90;;;;;;4945617;29;20093;-57
2023/03/05 11:15:00;;;;;;;21.55;12.27;;;5.40;99.90;;;;;;4940219;29;20396;-57
2023/03/05 11:17:28;;;;;;;25.60;12.48;;;5.50;99.90;;;;;;4941482;29;20061;-57
2023/03/05 11:19:56;;;;;;;24.10;12.73;;;5.70;99.90;;;;;;4947730;29;20541;-57
2023/03/05 11:22:23;;;;;;;21.10;12.10;;;5.70;99.90;;;;;;4604575;28;10000307;-55
2023/03/05 11:25:17;;;;;;;24.45;13.95;;;5.80;99.90;;;;;;4945165;29;20122;-58
2023/03/05 11:27:53;;;;;;;33.80;15.27;;;5.70;99.90;;;;;;4945290;29;20138;-58
2023/03/05 11:30:31;;;;;;;37.47;13.57;;;5.70;99.90;;;;;;4928319;29;20289;-58
2023/03/05 11:33:37;;;;;;;23.23;12.55;;;5.70;99.90;;;;;;4944634;29;20142;-57
2023/03/05 11:36:16;;;;;;;29.40;14.13;;;5.70;99.90;;;;;;4866797;29;20049;-58
2023/03/05 11:38:46;;;;;;;34.30;14.00;;;5.60;99.90;;;;;;4867802;29;20158;-58
2023/03/05 11:41:13;;;;;;;27.13;13.38;;;5.80;99.90;;;;;;4913105;29;20572;-58
2023/03/05 11:43:40;;;;;;;18.52;11.43;;;5.70;99.90;;;;;;4945159;29;20264;-58
2023/03/05 11:46:08;;;;;;;26.83;14.23;;;5.80;99.90;;;;;;4944982;29;20134;-57
2023/03/05 11:48:36;;;;;;;21.38;13.43;;;5.80;99.90;;;;;;4898121;29;20051;-57
2023/03/05 11:51:07;;;;;;;20.80;12.80;;;5.80;99.90;;;;;;4946770;29;20078;-58
2023/03/05 11:53:35;;;;;;;26.50;14.68;;;5.60;99.90;;;;;;4930256;29;20086;-58
2023/03/05 11:56:19;;;;;;;22.17;13.95;;;5.70;99.90;;;;;;4932476;29;20051;-57
2023/03/05 11:58:56;;;;;;;23.00;14.20;;;5.70;99.90;;;;;;4924694;29;20061;-59
2023/03/05 12:01:24;;;;;;;23.65;14.20;;;5.60;99.90;;;;;;4910851;29;20503;-57
2023/03/05 12:03:51;;;;;;;25.02;13.27;;;5.70;99.90;;;;;;4928765;29;20058;-58
2023/03/05 12:07:09;;;;;;;22.63;13.25;;;5.50;99.90;;;;;;4941221;29;20076;-62
2023/03/05 12:09:50;;;;;;;25.20;13.65;;;5.30;99.90;;;;;;4932974;29;20059;-58
2023/03/05 12:12:54;;;;;;;27.40;14.07;;;5.50;99.90;;;;;;4942848;29;20055;-61
2023/03/05 12:15:43;;;;;;;28.33;13.55;;;5.50;99.90;;;;;;4943248;28;20424;-55
2023/03/05 12:18:55;;;;;;;21.45;12.13;;;5.30;99.90;;;;;;4945848;29;20051;-60
2023/03/05 12:21:33;;;;;;;25.38;15.07;;;5.20;99.90;;;;;;4897068;29;20052;-58
2023/03/05 12:24:01;;;;;;;25.45;13.65;;;5.40;99.90;;;;;;4889052;29;20060;-61
2023/03/05 12:26:58;;;;;;;22.23;12.95;;;5.50;99.90;;;;;;4923010;29;20051;-59
2023/03/05 12:29:45;;;;;;;30.40;13.85;;;5.50;99.90;;;;;;4945044;29;20053;-58
2023/03/05 12:32:21;;;;;;;24.35;13.57;;;5.40;99.90;;;;;;4941186;29;20709;-61
2023/03/05 12:34:56;;;;;;;29.90;15.60;;;5.30;99.90;;;;;;4943154;29;20116;-57
2023/03/05 12:37:23;;;;;;;27.63;15.07;;;5.30;99.90;;;;;;4943158;29;20052;-60
2023/03/05 12:39:59;;;;;;;33.63;16.08;;;5.20;99.90;;;;;;4939090;29;20083;-60
2023/03/05 12:42:30;;;;;;;25.02;14.25;;;5.20;99.90;;;;;;4932991;29;20058;-58
2023/03/05 12:45:10;;;;;;;24.33;14.27;;;5.50;99.90;;;;;;4942478;29;20059;-58
2023/03/05 12:47:41;;;;;;;23.05;13.05;;;5.50;99.90;;;;;;4937570;29;20051;-58
2023/03/05 12:50:26;;;;;;;28.40;14.38;;;5.60;99.90;;;;;;4948269;29;20263;-57
2023/03/05 12:53:05;;;;;;;22.50;12.15;;;5.40;99.90;;;;;;4925926;29;20583;-56
2023/03/05 12:55:38;;;;;;;25.60;14.32;;;5.20;99.90;;;;;;4944790;29;20503;-58
2023/03/05 12:58:12;;;;;;;23.02;12.98;;;5.20;99.90;;;;;;4940202;29;20138;-58